sensor_id;sensor_type;location;lat;lon;timestamp;P1;P2;P0
59546;PMS5003;45368;55.002;-1.592;2022-10-26T00:00:32;8;6;
59546;PMS5003;45368;55.002;-1.592;2022-10-26T00:02:59;9;7;
59546;PMS5003;45368;55.002;-1.592;2022-10-26T00:05:26;12;10;
59546;PMS5003;45368;55.002;-1.592;2022-10-26T00:07:53;9;8;
59546;PMS5003;45368;55.002;-1.592;2022-10-26T00:10:20;12;9;
59546;PMS5003;45368;55.002;-1.592;2022-10-26T00:12:48;11;10;
59546;PMS5003;45368;55.002;-1.592;2022-10-26T00:15:15;14;13;
59546;PMS5003;45368;55.002;-1.592;2022-10-26T00:17:43;11;11;
59546;PMS5003;45368;55.002;-1.592;2022-10-26T00:20:11;13;10;
59546;PMS5003;45368;55.002;-1.592;2022-10-26T00:22:38;15;13;
59546;PMS5003;45368;55.002;-1.592;2022-10-26T00:25:06;12;9;
59546;PMS5003;45368;55.002;-1.592;2022-10-26T00:27:35;16;14;
59546;PMS5003;45368;55.002;-1.592;2022-10-26T00:30:03;13;11;
59546;PMS5003;45368;55.002;-1.592;2022-10-26T00:32:31;16;14;
59546;PMS5003;45368;55.002;-1.592;2022-10-26T00:34:58;14;13;
59546;PMS5003;45368;55.002;-1.592;2022-10-26T00:37:26;11;10;
59546;PMS5003;45368;55.002;-1.592;2022-10-26T00:39:53;7;7;
59546;PMS5003;45368;55.002;-1.592;2022-10-26T00:42:20;9;9;
59546;PMS5003;45368;55.002;-1.592;2022-10-26T00:44:57;12;11;
59546;PMS5003;45368;55.002;-1.592;2022-10-26T00:47:28;8;7;
59546;PMS5003;45368;55.002;-1.592;2022-10-26T00:50:03;11;9;
59546;PMS5003;45368;55.002;-1.592;2022-10-26T00:52:34;11;8;
59546;PMS5003;45368;55.002;-1.592;2022-10-26T00:55:03;11;11;
59546;PMS5003;45368;55.002;-1.592;2022-10-26T00:57:31;10;10;
59546;PMS5003;45368;55.002;-1.592;2022-10-26T01:00:00;12;10;
59546;PMS5003;45368;55.002;-1.592;2022-10-26T01:02:27;15;11;
59546;PMS5003;45368;55.002;-1.592;2022-10-26T01:04:54;13;12;
59546;PMS5003;45368;55.002;-1.592;2022-10-26T01:07:22;11;10;
59546;PMS5003;45368;55.002;-1.592;2022-10-26T01:09:50;9;9;
59546;PMS5003;45368;55.002;-1.592;2022-10-26T01:12:19;11;10;
59546;PMS5003;45368;55.002;-1.592;2022-10-26T01:14:46;11;11;
59546;PMS5003;45368;55.002;-1.592;2022-10-26T01:17:18;10;9;
59546;PMS5003;45368;55.002;-1.592;2022-10-26T01:20:03;8;8;
59546;PMS5003;45368;55.002;-1.592;2022-10-26T01:22:48;11;10;
59546;PMS5003;45368;55.002;-1.592;2022-10-26T01:25:26;11;11;
59546;PMS5003;45368;55.002;-1.592;2022-10-26T01:28:13;9;9;
59546;PMS5003;45368;55.002;-1.592;2022-10-26T01:30:55;9;9;
59546;PMS5003;45368;55.002;-1.592;2022-10-26T01:33:29;10;9;
59546;PMS5003;45368;55.002;-1.592;2022-10-26T01:36:02;12;12;
59546;PMS5003;45368;55.002;-1.592;2022-10-26T01:38:41;11;11;
59546;PMS5003;45368;55.002;-1.592;2022-10-26T01:41:15;14;14;
59546;PMS5003;45368;55.002;-1.592;2022-10-26T01:43:49;14;13;
59546;PMS5003;45368;55.002;-1.592;2022-10-26T01:46:20;11;10;
59546;PMS5003;45368;55.002;-1.592;2022-10-26T01:48:49;11;10;
59546;PMS5003;45368;55.002;-1.592;2022-10-26T01:51:21;11;11;
59546;PMS5003;45368;55.002;-1.592;2022-10-26T01:53:50;12;10;
59546;PMS5003;45368;55.002;-1.592;2022-10-26T01:56:18;13;11;
59546;PMS5003;45368;55.002;-1.592;2022-10-26T01:58:54;9;9;
59546;PMS5003;45368;55.002;-1.592;2022-10-26T02:01:40;10;9;
59546;PMS5003;45368;55.002;-1.592;2022-10-26T02:04:28;11;9;
59546;PMS5003;45368;55.002;-1.592;2022-10-26T02:07:10;10;9;
59546;PMS5003;45368;55.002;-1.592;2022-10-26T02:09:49;9;8;
59546;PMS5003;45368;55.002;-1.592;2022-10-26T02:12:25;7;7;
59546;PMS5003;45368;55.002;-1.592;2022-10-26T02:15:01;6;6;
59546;PMS5003;45368;55.002;-1.592;2022-10-26T02:17:35;7;7;
59546;PMS5003;45368;55.002;-1.592;2022-10-26T02:20:13;7;6;
59546;PMS5003;45368;55.002;-1.592;2022-10-26T02:22:47;7;7;
59546;PMS5003;45368;55.002;-1.592;2022-10-26T02:25:18;8;8;
59546;PMS5003;45368;55.002;-1.592;2022-10-26T02:27:49;6;6;
59546;PMS5003;45368;55.002;-1.592;2022-10-26T02:30:20;8;7;
59546;PMS5003;45368;55.002;-1.592;2022-10-26T02:32:49;7;7;
59546;PMS5003;45368;55.002;-1.592;2022-10-26T02:35:19;7;7;
59546;PMS5003;45368;55.002;-1.592;2022-10-26T02:37:51;5;4;
59546;PMS5003;45368;55.002;-1.592;2022-10-26T02:40:22;8;8;
59546;PMS5003;45368;55.002;-1.592;2022-10-26T02:42:52;8;7;
59546;PMS5003;45368;55.002;-1.592;2022-10-26T02:45:24;9;8;
59546;PMS5003;45368;55.002;-1.592;2022-10-26T02:47:53;11;8;
59546;PMS5003;45368;55.002;-1.592;2022-10-26T02:50:22;8;8;
59546;PMS5003;45368;55.002;-1.592;2022-10-26T02:52:56;7;6;
59546;PMS5003;45368;55.002;-1.592;2022-10-26T02:55:34;9;9;
59546;PMS5003;45368;55.002;-1.592;2022-10-26T02:58:07;10;8;
59546;PMS5003;45368;55.002;-1.592;2022-10-26T03:00:41;7;7;
59546;PMS5003;45368;55.002;-1.592;2022-10-26T03:03:08;11;9;
59546;PMS5003;45368;55.002;-1.592;2022-10-26T03:05:39;10;10;
59546;PMS5003;45368;55.002;-1.592;2022-10-26T03:08:07;10;10;
59546;PMS5003;45368;55.002;-1.592;2022-10-26T03:10:35;11;11;
59546;PMS5003;45368;55.002;-1.592;2022-10-26T03:13:07;12;11;
59546;PMS5003;45368;55.002;-1.592;2022-10-26T03:15:34;10;9;
59546;PMS5003;45368;55.002;-1.592;2022-10-26T03:18:01;12;10;
59546;PMS5003;45368;55.002;-1.592;2022-10-26T03:20:29;12;11;
59546;PMS5003;45368;55.002;-1.592;2022-10-26T03:22:56;15;15;
59546;PMS5003;45368;55.002;-1.592;2022-10-26T03:25:23;11;11;
59546;PMS5003;45368;55.002;-1.592;2022-10-26T03:27:55;13;13;
59546;PMS5003;45368;55.002;-1.592;2022-10-26T03:30:23;17;16;
59546;PMS5003;45368;55.002;-1.592;2022-10-26T03:32:51;13;13;
59546;PMS5003;45368;55.002;-1.592;2022-10-26T03:35:18;17;17;
59546;PMS5003;45368;55.002;-1.592;2022-10-26T03:37:45;15;14;
59546;PMS5003;45368;55.002;-1.592;2022-10-26T03:40:12;19;18;
59546;PMS5003;45368;55.002;-1.592;2022-10-26T03:42:40;18;15;
59546;PMS5003;45368;55.002;-1.592;2022-10-26T03:45:08;19;17;
59546;PMS5003;45368;55.002;-1.592;2022-10-26T03:47:41;14;14;
59546;PMS5003;45368;55.002;-1.592;2022-10-26T03:50:10;20;19;
59546;PMS5003;45368;55.002;-1.592;2022-10-26T03:52:38;19;18;
59546;PMS5003;45368;55.002;-1.592;2022-10-26T03:55:06;17;15;
59546;PMS5003;45368;55.002;-1.592;2022-10-26T03:57:38;19;19;
59546;PMS5003;45368;55.002;-1.592;2022-10-26T04:00:06;20;18;
59546;PMS5003;45368;55.002;-1.592;2022-10-26T04:02:35;16;15;
59546;PMS5003;45368;55.002;-1.592;2022-10-26T04:05:02;18;15;
59546;PMS5003;45368;55.002;-1.592;2022-10-26T04:07:29;17;16;
59546;PMS5003;45368;55.002;-1.592;2022-10-26T04:09:56;17;17;
59546;PMS5003;45368;55.002;-1.592;2022-10-26T04:12:23;17;15;
59546;PMS5003;45368;55.002;-1.592;2022-10-26T04:14:51;19;18;
59546;PMS5003;45368;55.002;-1.592;2022-10-26T04:17:18;16;15;
59546;PMS5003;45368;55.002;-1.592;2022-10-26T04:19:44;15;15;
59546;PMS5003;45368;55.002;-1.592;2022-10-26T04:22:11;18;18;
59546;PMS5003;45368;55.002;-1.592;2022-10-26T04:24:38;16;15;
59546;PMS5003;45368;55.002;-1.592;2022-10-26T04:27:06;17;16;
59546;PMS5003;45368;55.002;-1.592;2022-10-26T04:29:32;17;16;
59546;PMS5003;45368;55.002;-1.592;2022-10-26T04:31:59;17;16;
59546;PMS5003;45368;55.002;-1.592;2022-10-26T04:34:27;18;16;
59546;PMS5003;45368;55.002;-1.592;2022-10-26T04:36:54;16;14;
59546;PMS5003;45368;55.002;-1.592;2022-10-26T04:39:21;19;18;
59546;PMS5003;45368;55.002;-1.592;2022-10-26T04:41:48;17;16;
59546;PMS5003;45368;55.002;-1.592;2022-10-26T04:44:15;15;15;
59546;PMS5003;45368;55.002;-1.592;2022-10-26T04:46:42;16;15;
59546;PMS5003;45368;55.002;-1.592;2022-10-26T04:49:09;20;17;
59546;PMS5003;45368;55.002;-1.592;2022-10-26T04:51:38;16;16;
59546;PMS5003;45368;55.002;-1.592;2022-10-26T04:54:05;17;15;
59546;PMS5003;45368;55.002;-1.592;2022-10-26T04:56:32;14;14;
59546;PMS5003;45368;55.002;-1.592;2022-10-26T04:58:58;18;15;
59546;PMS5003;45368;55.002;-1.592;2022-10-26T05:01:25;15;14;
59546;PMS5003;45368;55.002;-1.592;2022-10-26T05:03:53;16;15;
59546;PMS5003;45368;55.002;-1.592;2022-10-26T05:06:20;17;16;
59546;PMS5003;45368;55.002;-1.592;2022-10-26T05:08:47;17;15;
59546;PMS5003;45368;55.002;-1.592;2022-10-26T05:11:15;17;17;
59546;PMS5003;45368;55.002;-1.592;2022-10-26T05:13:43;17;15;
59546;PMS5003;45368;55.002;-1.592;2022-10-26T05:16:12;15;14;
59546;PMS5003;45368;55.002;-1.592;2022-10-26T05:18:39;15;14;
59546;PMS5003;45368;55.002;-1.592;2022-10-26T05:21:07;14;14;
59546;PMS5003;45368;55.002;-1.592;2022-10-26T05:23:34;15;14;
59546;PMS5003;45368;55.002;-1.592;2022-10-26T05:26:02;15;14;
59546;PMS5003;45368;55.002;-1.592;2022-10-26T05:28:30;16;15;
59546;PMS5003;45368;55.002;-1.592;2022-10-26T05:30:56;17;16;
59546;PMS5003;45368;55.002;-1.592;2022-10-26T05:33:24;14;12;
59546;PMS5003;45368;55.002;-1.592;2022-10-26T05:35:52;16;14;
59546;PMS5003;45368;55.002;-1.592;2022-10-26T05:38:19;15;14;
59546;PMS5003;45368;55.002;-1.592;2022-10-26T05:40:46;17;17;
59546;PMS5003;45368;55.002;-1.592;2022-10-26T05:43:14;16;16;
59546;PMS5003;45368;55.002;-1.592;2022-10-26T05:45:42;16;14;
59546;PMS5003;45368;55.002;-1.592;2022-10-26T05:48:10;17;17;
59546;PMS5003;45368;55.002;-1.592;2022-10-26T05:50:38;19;18;
59546;PMS5003;45368;55.002;-1.592;2022-10-26T05:53:06;17;17;
59546;PMS5003;45368;55.002;-1.592;2022-10-26T05:55:33;20;19;
59546;PMS5003;45368;55.002;-1.592;2022-10-26T05:58:01;19;19;
59546;PMS5003;45368;55.002;-1.592;2022-10-26T06:00:29;17;17;
59546;PMS5003;45368;55.002;-1.592;2022-10-26T06:03:04;23;20;
59546;PMS5003;45368;55.002;-1.592;2022-10-26T06:05:41;19;19;
59546;PMS5003;45368;55.002;-1.592;2022-10-26T06:08:17;21;18;
59546;PMS5003;45368;55.002;-1.592;2022-10-26T06:10:45;17;16;
59546;PMS5003;45368;55.002;-1.592;2022-10-26T06:13:14;18;17;
59546;PMS5003;45368;55.002;-1.592;2022-10-26T06:15:44;18;17;
59546;PMS5003;45368;55.002;-1.592;2022-10-26T06:18:24;22;20;
59546;PMS5003;45368;55.002;-1.592;2022-10-26T06:21:04;19;18;
59546;PMS5003;45368;55.002;-1.592;2022-10-26T06:23:45;19;17;
59546;PMS5003;45368;55.002;-1.592;2022-10-26T06:26:23;22;22;
59546;PMS5003;45368;55.002;-1.592;2022-10-26T06:29:04;15;15;
59546;PMS5003;45368;55.002;-1.592;2022-10-26T06:31:43;21;18;
59546;PMS5003;45368;55.002;-1.592;2022-10-26T06:34:12;22;20;
59546;PMS5003;45368;55.002;-1.592;2022-10-26T06:36:45;19;18;
59546;PMS5003;45368;55.002;-1.592;2022-10-26T06:39:13;27;23;
59546;PMS5003;45368;55.002;-1.592;2022-10-26T06:41:43;22;19;
59546;PMS5003;45368;55.002;-1.592;2022-10-26T06:44:11;19;19;
59546;PMS5003;45368;55.002;-1.592;2022-10-26T06:46:50;20;20;
59546;PMS5003;45368;55.002;-1.592;2022-10-26T06:49:26;24;22;
59546;PMS5003;45368;55.002;-1.592;2022-10-26T06:51:57;21;19;
59546;PMS5003;45368;55.002;-1.592;2022-10-26T06:54:29;25;23;
59546;PMS5003;45368;55.002;-1.592;2022-10-26T06:57:06;24;24;
59546;PMS5003;45368;55.002;-1.592;2022-10-26T06:59:36;19;19;
59546;PMS5003;45368;55.002;-1.592;2022-10-26T07:02:07;22;20;
59546;PMS5003;45368;55.002;-1.592;2022-10-26T07:04:35;21;20;
59546;PMS5003;45368;55.002;-1.592;2022-10-26T07:07:02;21;19;
59546;PMS5003;45368;55.002;-1.592;2022-10-26T07:09:30;18;17;
59546;PMS5003;45368;55.002;-1.592;2022-10-26T07:11:57;17;16;
59546;PMS5003;45368;55.002;-1.592;2022-10-26T07:14:23;17;16;
59546;PMS5003;45368;55.002;-1.592;2022-10-26T07:16:51;20;17;
59546;PMS5003;45368;55.002;-1.592;2022-10-26T07:19:18;16;15;
59546;PMS5003;45368;55.002;-1.592;2022-10-26T07:21:46;17;17;
59546;PMS5003;45368;55.002;-1.592;2022-10-26T07:24:14;15;15;
59546;PMS5003;45368;55.002;-1.592;2022-10-26T07:26:41;19;16;
59546;PMS5003;45368;55.002;-1.592;2022-10-26T07:29:09;21;21;
59546;PMS5003;45368;55.002;-1.592;2022-10-26T07:31:36;14;13;
59546;PMS5003;45368;55.002;-1.592;2022-10-26T07:34:03;17;16;
59546;PMS5003;45368;55.002;-1.592;2022-10-26T07:36:30;15;14;
59546;PMS5003;45368;55.002;-1.592;2022-10-26T07:38:57;15;15;
59546;PMS5003;45368;55.002;-1.592;2022-10-26T07:41:24;16;14;
59546;PMS5003;45368;55.002;-1.592;2022-10-26T07:43:51;17;15;
59546;PMS5003;45368;55.002;-1.592;2022-10-26T07:46:18;14;13;
59546;PMS5003;45368;55.002;-1.592;2022-10-26T07:48:44;13;13;
59546;PMS5003;45368;55.002;-1.592;2022-10-26T07:51:11;11;11;
59546;PMS5003;45368;55.002;-1.592;2022-10-26T07:53:39;13;12;
59546;PMS5003;45368;55.002;-1.592;2022-10-26T07:56:06;16;15;
59546;PMS5003;45368;55.002;-1.592;2022-10-26T07:58:35;15;15;
59546;PMS5003;45368;55.002;-1.592;2022-10-26T08:01:04;13;13;
59546;PMS5003;45368;55.002;-1.592;2022-10-26T08:03:32;13;13;
59546;PMS5003;45368;55.002;-1.592;2022-10-26T08:05:59;16;16;
59546;PMS5003;45368;55.002;-1.592;2022-10-26T08:08:26;13;12;
59546;PMS5003;45368;55.002;-1.592;2022-10-26T08:10:53;15;15;
59546;PMS5003;45368;55.002;-1.592;2022-10-26T08:13:20;17;15;
59546;PMS5003;45368;55.002;-1.592;2022-10-26T08:15:47;17;16;
59546;PMS5003;45368;55.002;-1.592;2022-10-26T08:18:15;14;13;
59546;PMS5003;45368;55.002;-1.592;2022-10-26T08:20:43;18;15;
59546;PMS5003;45368;55.002;-1.592;2022-10-26T08:23:10;13;12;
59546;PMS5003;45368;55.002;-1.592;2022-10-26T08:25:37;15;14;
59546;PMS5003;45368;55.002;-1.592;2022-10-26T08:28:05;14;13;
59546;PMS5003;45368;55.002;-1.592;2022-10-26T08:30:32;15;15;
59546;PMS5003;45368;55.002;-1.592;2022-10-26T08:32:59;12;11;
59546;PMS5003;45368;55.002;-1.592;2022-10-26T08:35:27;14;14;
59546;PMS5003;45368;55.002;-1.592;2022-10-26T08:37:55;10;10;
59546;PMS5003;45368;55.002;-1.592;2022-10-26T08:40:24;15;14;
59546;PMS5003;45368;55.002;-1.592;2022-10-26T08:42:55;14;13;
59546;PMS5003;45368;55.002;-1.592;2022-10-26T08:45:27;15;14;
59546;PMS5003;45368;55.002;-1.592;2022-10-26T08:47:59;15;14;
59546;PMS5003;45368;55.002;-1.592;2022-10-26T08:50:31;13;12;
59546;PMS5003;45368;55.002;-1.592;2022-10-26T08:53:02;12;12;
59546;PMS5003;45368;55.002;-1.592;2022-10-26T08:55:38;17;17;
59546;PMS5003;45368;55.002;-1.592;2022-10-26T08:58:12;11;10;
59546;PMS5003;45368;55.002;-1.592;2022-10-26T09:00:42;13;12;
59546;PMS5003;45368;55.002;-1.592;2022-10-26T09:03:12;9;8;
59546;PMS5003;45368;55.002;-1.592;2022-10-26T09:05:44;11;11;
59546;PMS5003;45368;55.002;-1.592;2022-10-26T09:08:22;9;9;
59546;PMS5003;45368;55.002;-1.592;2022-10-26T09:10:59;11;11;
59546;PMS5003;45368;55.002;-1.592;2022-10-26T09:13:35;13;13;
59546;PMS5003;45368;55.002;-1.592;2022-10-26T09:16:16;11;10;
59546;PMS5003;45368;55.002;-1.592;2022-10-26T09:18:56;10;9;
59546;PMS5003;45368;55.002;-1.592;2022-10-26T09:21:37;12;12;
59546;PMS5003;45368;55.002;-1.592;2022-10-26T09:24:13;10;10;
59546;PMS5003;45368;55.002;-1.592;2022-10-26T09:26:50;11;10;
59546;PMS5003;45368;55.002;-1.592;2022-10-26T09:29:21;11;10;
59546;PMS5003;45368;55.002;-1.592;2022-10-26T09:31:52;11;9;
59546;PMS5003;45368;55.002;-1.592;2022-10-26T09:34:24;9;9;
59546;PMS5003;45368;55.002;-1.592;2022-10-26T09:36:57;10;8;
59546;PMS5003;45368;55.002;-1.592;2022-10-26T09:39:27;8;7;
59546;PMS5003;45368;55.002;-1.592;2022-10-26T09:42:03;5;3;
59546;PMS5003;45368;55.002;-1.592;2022-10-26T09:44:41;5;3;
59546;PMS5003;45368;55.002;-1.592;2022-10-26T09:47:19;3;2;
59546;PMS5003;45368;55.002;-1.592;2022-10-26T09:49:55;2;2;
59546;PMS5003;45368;55.002;-1.592;2022-10-26T09:52:27;1;1;
59546;PMS5003;45368;55.002;-1.592;2022-10-26T09:54:54;1;1;
59546;PMS5003;45368;55.002;-1.592;2022-10-26T09:57:21;1;1;
59546;PMS5003;45368;55.002;-1.592;2022-10-26T09:59:48;3;2;
59546;PMS5003;45368;55.002;-1.592;2022-10-26T10:02:35;1;1;
59546;PMS5003;45368;55.002;-1.592;2022-10-26T10:05:19;2;2;
59546;PMS5003;45368;55.002;-1.592;2022-10-26T10:07:53;0;0;
59546;PMS5003;45368;55.002;-1.592;2022-10-26T10:10:52;3;2;
59546;PMS5003;45368;55.002;-1.592;2022-10-26T10:13:22;3;2;
59546;PMS5003;45368;55.002;-1.592;2022-10-26T10:15:51;0;0;
59546;PMS5003;45368;55.002;-1.592;2022-10-26T10:18:20;3;1;
59546;PMS5003;45368;55.002;-1.592;2022-10-26T10:20:51;2;2;
59546;PMS5003;45368;55.002;-1.592;2022-10-26T10:23:24;1;1;
59546;PMS5003;45368;55.002;-1.592;2022-10-26T10:26:04;1;1;
59546;PMS5003;45368;55.002;-1.592;2022-10-26T10:28:33;3;3;
59546;PMS5003;45368;55.002;-1.592;2022-10-26T10:31:01;4;2;
59546;PMS5003;45368;55.002;-1.592;2022-10-26T10:33:32;3;2;
59546;PMS5003;45368;55.002;-1.592;2022-10-26T10:36:03;1;1;
59546;PMS5003;45368;55.002;-1.592;2022-10-26T10:38:42;1;1;
59546;PMS5003;45368;55.002;-1.592;2022-10-26T10:41:14;1;1;
59546;PMS5003;45368;55.002;-1.592;2022-10-26T10:43:45;1;0;
59546;PMS5003;45368;55.002;-1.592;2022-10-26T10:46:17;1;1;
59546;PMS5003;45368;55.002;-1.592;2022-10-26T10:48:48;0;0;
59546;PMS5003;45368;55.002;-1.592;2022-10-26T10:51:20;1;1;
59546;PMS5003;45368;55.002;-1.592;2022-10-26T10:53:52;1;1;
59546;PMS5003;45368;55.002;-1.592;2022-10-26T10:56:24;2;1;
59546;PMS5003;45368;55.002;-1.592;2022-10-26T10:59:03;0;0;
59546;PMS5003;45368;55.002;-1.592;2022-10-26T11:02:15;2;1;
59546;PMS5003;45368;55.002;-1.592;2022-10-26T11:05:00;1;0;
59546;PMS5003;45368;55.002;-1.592;2022-10-26T11:07:43;0;0;
59546;PMS5003;45368;55.002;-1.592;2022-10-26T11:10:16;0;0;
59546;PMS5003;45368;55.002;-1.592;2022-10-26T11:12:47;0;0;
59546;PMS5003;45368;55.002;-1.592;2022-10-26T11:15:20;1;0;
59546;PMS5003;45368;55.002;-1.592;2022-10-26T11:17:51;1;1;
59546;PMS5003;45368;55.002;-1.592;2022-10-26T11:20:25;0;0;
59546;PMS5003;45368;55.002;-1.592;2022-10-26T11:22:58;1;0;
59546;PMS5003;45368;55.002;-1.592;2022-10-26T11:25:33;1;1;
59546;PMS5003;45368;55.002;-1.592;2022-10-26T11:28:09;2;2;
59546;PMS5003;45368;55.002;-1.592;2022-10-26T11:30:42;0;0;
59546;PMS5003;45368;55.002;-1.592;2022-10-26T11:33:15;0;0;
59546;PMS5003;45368;55.002;-1.592;2022-10-26T11:35:51;4;1;
59546;PMS5003;45368;55.002;-1.592;2022-10-26T11:38:24;1;1;
59546;PMS5003;45368;55.002;-1.592;2022-10-26T11:40:59;0;0;
59546;PMS5003;45368;55.002;-1.592;2022-10-26T11:43:34;2;1;
59546;PMS5003;45368;55.002;-1.592;2022-10-26T11:46:07;2;1;
59546;PMS5003;45368;55.002;-1.592;2022-10-26T11:48:41;1;0;
59546;PMS5003;45368;55.002;-1.592;2022-10-26T11:51:16;1;0;
59546;PMS5003;45368;55.002;-1.592;2022-10-26T11:53:46;3;0;
59546;PMS5003;45368;55.002;-1.592;2022-10-26T11:56:18;3;1;
59546;PMS5003;45368;55.002;-1.592;2022-10-26T11:58:52;0;0;
59546;PMS5003;45368;55.002;-1.592;2022-10-26T12:01:22;1;1;
59546;PMS5003;45368;55.002;-1.592;2022-10-26T12:03:50;2;1;
59546;PMS5003;45368;55.002;-1.592;2022-10-26T12:06:21;4;1;
59546;PMS5003;45368;55.002;-1.592;2022-10-26T12:08:54;4;1;
59546;PMS5003;45368;55.002;-1.592;2022-10-26T12:11:31;2;2;
59546;PMS5003;45368;55.002;-1.592;2022-10-26T12:14:05;3;2;
59546;PMS5003;45368;55.002;-1.592;2022-10-26T12:16:45;3;2;
59546;PMS5003;45368;55.002;-1.592;2022-10-26T12:19:20;1;1;
59546;PMS5003;45368;55.002;-1.592;2022-10-26T12:21:53;3;1;
59546;PMS5003;45368;55.002;-1.592;2022-10-26T12:24:24;1;0;
59546;PMS5003;45368;55.002;-1.592;2022-10-26T12:26:53;0;0;
59546;PMS5003;45368;55.002;-1.592;2022-10-26T12:29:38;0;0;
59546;PMS5003;45368;55.002;-1.592;2022-10-26T12:33:26;3;1;
59546;PMS5003;45368;55.002;-1.592;2022-10-26T12:35:54;4;1;
59546;PMS5003;45368;55.002;-1.592;2022-10-26T12:38:35;3;2;
59546;PMS5003;45368;55.002;-1.592;2022-10-26T12:41:22;3;1;
59546;PMS5003;45368;55.002;-1.592;2022-10-26T12:43:54;3;1;
59546;PMS5003;45368;55.002;-1.592;2022-10-26T12:46:43;0;0;
59546;PMS5003;45368;55.002;-1.592;2022-10-26T12:50:01;4;1;
59546;PMS5003;45368;55.002;-1.592;2022-10-26T12:52:49;2;1;
59546;PMS5003;45368;55.002;-1.592;2022-10-26T12:55:26;3;2;
59546;PMS5003;45368;55.002;-1.592;2022-10-26T12:58:13;1;1;
59546;PMS5003;45368;55.002;-1.592;2022-10-26T13:01:07;2;1;
59546;PMS5003;45368;55.002;-1.592;2022-10-26T13:03:48;1;0;
59546;PMS5003;45368;55.002;-1.592;2022-10-26T13:06:28;1;1;
59546;PMS5003;45368;55.002;-1.592;2022-10-26T13:09:07;2;1;
59546;PMS5003;45368;55.002;-1.592;2022-10-26T13:11:42;2;1;
59546;PMS5003;45368;55.002;-1.592;2022-10-26T13:14:17;3;1;
59546;PMS5003;45368;55.002;-1.592;2022-10-26T13:16:45;1;1;
59546;PMS5003;45368;55.002;-1.592;2022-10-26T13:19:22;1;0;
59546;PMS5003;45368;55.002;-1.592;2022-10-26T13:21:51;2;0;
59546;PMS5003;45368;55.002;-1.592;2022-10-26T13:24:19;6;1;
59546;PMS5003;45368;55.002;-1.592;2022-10-26T13:29:01;1;1;
59546;PMS5003;45368;55.002;-1.592;2022-10-26T13:32:02;2;1;
59546;PMS5003;45368;55.002;-1.592;2022-10-26T13:34:29;1;1;
59546;PMS5003;45368;55.002;-1.592;2022-10-26T13:37:02;1;1;
59546;PMS5003;45368;55.002;-1.592;2022-10-26T13:39:38;5;2;
59546;PMS5003;45368;55.002;-1.592;2022-10-26T13:42:11;3;0;
59546;PMS5003;45368;55.002;-1.592;2022-10-26T13:44:42;3;1;
59546;PMS5003;45368;55.002;-1.592;2022-10-26T13:47:15;1;0;
59546;PMS5003;45368;55.002;-1.592;2022-10-26T13:49:50;2;1;
59546;PMS5003;45368;55.002;-1.592;2022-10-26T13:52:22;3;2;
59546;PMS5003;45368;55.002;-1.592;2022-10-26T13:54:56;2;1;
59546;PMS5003;45368;55.002;-1.592;2022-10-26T13:57:28;3;1;
59546;PMS5003;45368;55.002;-1.592;2022-10-26T14:00:01;1;0;
59546;PMS5003;45368;55.002;-1.592;2022-10-26T14:02:35;5;2;
59546;PMS5003;45368;55.002;-1.592;2022-10-26T14:05:09;3;1;
59546;PMS5003;45368;55.002;-1.592;2022-10-26T14:07:39;1;1;
59546;PMS5003;45368;55.002;-1.592;2022-10-26T14:10:19;2;0;
59546;PMS5003;45368;55.002;-1.592;2022-10-26T14:12:51;3;1;
59546;PMS5003;45368;55.002;-1.592;2022-10-26T14:15:22;2;1;
59546;PMS5003;45368;55.002;-1.592;2022-10-26T14:17:51;3;0;
59546;PMS5003;45368;55.002;-1.592;2022-10-26T14:20:21;4;2;
59546;PMS5003;45368;55.002;-1.592;2022-10-26T14:22:51;2;0;
59546;PMS5003;45368;55.002;-1.592;2022-10-26T14:25:19;2;2;
59546;PMS5003;45368;55.002;-1.592;2022-10-26T14:27:48;3;2;
59546;PMS5003;45368;55.002;-1.592;2022-10-26T14:30:19;2;1;
59546;PMS5003;45368;55.002;-1.592;2022-10-26T14:32:48;4;0;
59546;PMS5003;45368;55.002;-1.592;2022-10-26T14:35:16;3;1;
59546;PMS5003;45368;55.002;-1.592;2022-10-26T14:37:48;2;2;
59546;PMS5003;45368;55.002;-1.592;2022-10-26T14:40:18;4;1;
59546;PMS5003;45368;55.002;-1.592;2022-10-26T14:42:47;3;1;
59546;PMS5003;45368;55.002;-1.592;2022-10-26T14:45:22;2;1;
59546;PMS5003;45368;55.002;-1.592;2022-10-26T14:47:53;8;4;
59546;PMS5003;45368;55.002;-1.592;2022-10-26T14:50:22;5;2;
59546;PMS5003;45368;55.002;-1.592;2022-10-26T14:52:51;2;0;
59546;PMS5003;45368;55.002;-1.592;2022-10-26T14:55:20;5;2;
59546;PMS5003;45368;55.002;-1.592;2022-10-26T14:57:50;4;2;
59546;PMS5003;45368;55.002;-1.592;2022-10-26T15:00:30;5;1;
59546;PMS5003;45368;55.002;-1.592;2022-10-26T15:02:58;3;1;
59546;PMS5003;45368;55.002;-1.592;2022-10-26T15:05:27;2;2;
59546;PMS5003;45368;55.002;-1.592;2022-10-26T15:07:55;3;2;
59546;PMS5003;45368;55.002;-1.592;2022-10-26T15:10:54;2;2;
59546;PMS5003;45368;55.002;-1.592;2022-10-26T15:13:23;5;2;
59546;PMS5003;45368;55.002;-1.592;2022-10-26T15:15:56;3;1;
59546;PMS5003;45368;55.002;-1.592;2022-10-26T15:18:34;4;1;
59546;PMS5003;45368;55.002;-1.592;2022-10-26T15:21:03;2;1;
59546;PMS5003;45368;55.002;-1.592;2022-10-26T15:23:45;3;2;
59546;PMS5003;45368;55.002;-1.592;2022-10-26T15:26:12;5;3;
59546;PMS5003;45368;55.002;-1.592;2022-10-26T15:28:40;5;3;
59546;PMS5003;45368;55.002;-1.592;2022-10-26T15:31:26;5;3;
59546;PMS5003;45368;55.002;-1.592;2022-10-26T15:34:12;4;2;
59546;PMS5003;45368;55.002;-1.592;2022-10-26T15:36:40;2;1;
59546;PMS5003;45368;55.002;-1.592;2022-10-26T15:39:08;3;2;
59546;PMS5003;45368;55.002;-1.592;2022-10-26T15:41:35;1;1;
59546;PMS5003;45368;55.002;-1.592;2022-10-26T15:44:04;6;2;
59546;PMS5003;45368;55.002;-1.592;2022-10-26T15:46:36;1;1;
59546;PMS5003;45368;55.002;-1.592;2022-10-26T15:49:04;3;2;
59546;PMS5003;45368;55.002;-1.592;2022-10-26T15:51:33;6;3;
59546;PMS5003;45368;55.002;-1.592;2022-10-26T15:54:01;5;1;
59546;PMS5003;45368;55.002;-1.592;2022-10-26T15:56:29;5;3;
59546;PMS5003;45368;55.002;-1.592;2022-10-26T15:58:57;2;2;
59546;PMS5003;45368;55.002;-1.592;2022-10-26T16:01:25;3;2;
59546;PMS5003;45368;55.002;-1.592;2022-10-26T16:03:53;3;1;
59546;PMS5003;45368;55.002;-1.592;2022-10-26T16:06:22;3;1;
59546;PMS5003;45368;55.002;-1.592;2022-10-26T16:08:54;1;1;
59546;PMS5003;45368;55.002;-1.592;2022-10-26T16:11:22;5;3;
59546;PMS5003;45368;55.002;-1.592;2022-10-26T16:13:50;2;1;
59546;PMS5003;45368;55.002;-1.592;2022-10-26T16:16:18;2;0;
59546;PMS5003;45368;55.002;-1.592;2022-10-26T16:18:46;4;2;
59546;PMS5003;45368;55.002;-1.592;2022-10-26T16:21:18;3;2;
59546;PMS5003;45368;55.002;-1.592;2022-10-26T16:23:48;5;4;
59546;PMS5003;45368;55.002;-1.592;2022-10-26T16:26:17;5;3;
59546;PMS5003;45368;55.002;-1.592;2022-10-26T16:28:45;4;4;
59546;PMS5003;45368;55.002;-1.592;2022-10-26T16:31:14;3;2;
59546;PMS5003;45368;55.002;-1.592;2022-10-26T16:33:43;3;1;
59546;PMS5003;45368;55.002;-1.592;2022-10-26T16:36:10;2;2;
59546;PMS5003;45368;55.002;-1.592;2022-10-26T16:38:38;4;1;
59546;PMS5003;45368;55.002;-1.592;2022-10-26T16:41:06;4;1;
59546;PMS5003;45368;55.002;-1.592;2022-10-26T16:43:35;7;1;
59546;PMS5003;45368;55.002;-1.592;2022-10-26T16:46:04;1;1;
59546;PMS5003;45368;55.002;-1.592;2022-10-26T16:48:34;1;1;
59546;PMS5003;45368;55.002;-1.592;2022-10-26T16:51:06;5;4;